Time;durP1;ratioP1;P1;durP2;ratioP2;P2;SDS_P1;SDS_P2;PMS_P1;PMS_P2;Temp;Humidity;BMP_temperature;BMP_pressure;BME280_temperature;BME280_humidity;BME280_pressure;Samples;Min_cycle;Max_cycle;Signal;HPM_P1;HPM_P2
2023/07/07 00:00:50;;;;;;;8.73;4.70;;;17.00;99.90;;;;;;5054464;28;20652;-59
2023/07/07 00:03:16;;;;;;;7.15;4.63;;;16.90;99.90;;;;;;5054240;28;20180;-59
2023/07/07 00:05:43;;;;;;;7.95;4.40;;;16.90;99.90;;;;;;5054534;28;20218;-59
2023/07/07 00:08:09;;;;;;;5.93;4.32;;;17.00;99.90;;;;;;5054463;28;20183;-59
2023/07/07 00:10:34;;;;;;;8.15;4.10;;;17.00;99.90;;;;;;5054367;28;20206;-59
2023/07/07 00:13:00;;;;;;;6.65;4.13;;;17.00;99.90;;;;;;5054194;28;20242;-59
2023/07/07 00:15:26;;;;;;;5.03;3.90;;;17.20;99.90;;;;;;5054431;28;20213;-59
2023/07/07 00:17:51;;;;;;;4.97;3.78;;;17.10;99.90;;;;;;5054210;28;20230;-59
2023/07/07 00:20:17;;;;;;;4.75;3.88;;;17.10;99.90;;;;;;5054153;28;20175;-59
2023/07/07 00:22:44;;;;;;;5.57;3.67;;;17.10;99.90;;;;;;5054227;28;20167;-59
2023/07/07 00:25:10;;;;;;;5.57;3.83;;;17.20;99.90;;;;;;5053950;28;20233;-59
2023/07/07 00:27:36;;;;;;;5.47;3.30;;;17.20;99.90;;;;;;5053903;28;20175;-59
2023/07/07 00:30:03;;;;;;;4.07;3.20;;;17.10;99.90;;;;;;5053795;28;20690;-59
2023/07/07 00:32:30;;;;;;;3.92;3.33;;;17.20;99.90;;;;;;5053690;28;20330;-59
2023/07/07 00:34:56;;;;;;;5.10;3.25;;;17.10;99.90;;;;;;5053811;28;20305;-59
2023/07/07 00:37:22;;;;;;;6.93;3.72;;;17.20;99.90;;;;;;5053853;28;20672;-59
2023/07/07 00:39:48;;;;;;;5.72;3.60;;;17.10;99.90;;;;;;5053913;28;20289;-59
2023/07/07 00:42:13;;;;;;;6.85;3.53;;;17.10;99.90;;;;;;5053241;28;20293;-59
2023/07/07 00:45:15;;;;;;;5.72;3.58;;;17.00;99.90;;;;;;5053552;28;20655;-59
2023/07/07 00:47:54;;;;;;;5.85;3.50;;;17.10;99.90;;;;;;5053561;28;20167;-59
2023/07/07 00:50:23;;;;;;;6.85;3.33;;;17.10;99.90;;;;;;5053526;28;20178;-59
2023/07/07 00:52:49;;;;;;;5.32;3.70;;;17.10;99.90;;;;;;5053353;28;20167;-59
2023/07/07 00:55:20;;;;;;;7.07;3.85;;;17.10;99.90;;;;;;5053333;28;20532;-59
2023/07/07 00:57:46;;;;;;;5.22;3.70;;;17.00;99.90;;;;;;5053379;28;20218;-59
2023/07/07 01:00:13;;;;;;;4.95;3.67;;;16.90;99.90;;;;;;5053446;28;20163;-59
2023/07/07 01:02:42;;;;;;;5.25;3.38;;;16.90;99.90;;;;;;5053448;28;20183;-59
2023/07/07 01:05:07;;;;;;;4.53;3.50;;;16.90;99.90;;;;;;5053342;28;20199;-59
2023/07/07 01:07:42;;;;;;;4.53;3.58;;;16.80;99.90;;;;;;5053263;28;20272;-59
2023/07/07 01:10:08;;;;;;;5.43;3.55;;;16.90;99.90;;;;;;5053612;28;20155;-59
2023/07/07 01:12:34;;;;;;;5.60;3.67;;;16.90;99.90;;;;;;5053296;28;20167;-59
2023/07/07 01:15:01;;;;;;;5.15;3.42;;;16.80;99.90;;;;;;5053310;28;20214;-59
2023/07/07 01:17:43;;;;;;;4.65;3.50;;;16.80;99.90;;;;;;5053268;28;20225;-59
2023/07/07 01:20:23;;;;;;;4.47;3.28;;;16.70;99.90;;;;;;5053164;28;20171;-59
2023/07/07 01:23:07;;;;;;;7.63;3.40;;;16.60;99.90;;;;;;5053059;28;20620;-59
2023/07/07 01:25:57;;;;;;;6.50;3.50;;;16.60;99.90;;;;;;5052999;28;20178;-59
2023/07/07 01:28:48;;;;;;;4.60;3.30;;;16.50;99.90;;;;;;5035286;28;20528;-59
2023/07/07 01:31:18;;;;;;;3.65;3.15;;;16.50;99.90;;;;;;5053223;28;20175;-59
2023/07/07 01:33:46;;;;;;;5.50;3.50;;;16.50;99.90;;;;;;5053004;28;20217;-59
2023/07/07 01:36:11;;;;;;;6.07;3.22;;;16.50;99.90;;;;;;5053051;28;20543;-59
2023/07/07 01:38:39;;;;;;;6.72;3.80;;;16.50;99.90;;;;;;5053278;28;20171;-59
2023/07/07 01:41:18;;;;;;;4.05;3.28;;;16.50;99.90;;;;;;5052824;28;20536;-59
2023/07/07 01:43:49;;;;;;;4.35;3.28;;;16.50;99.90;;;;;;5053135;28;20199;-59
2023/07/07 01:46:19;;;;;;;4.32;3.30;;;16.40;99.90;;;;;;5053071;28;20694;-59
2023/07/07 01:49:03;;;;;;;5.22;3.45;;;16.30;99.90;;;;;;5053153;28;20175;-59
2023/07/07 01:51:42;;;;;;;4.07;3.15;;;16.30;99.90;;;;;;5052877;28;20175;-59
2023/07/07 01:54:11;;;;;;;4.93;3.45;;;16.20;99.90;;;;;;5054047;28;20210;-59
2023/07/07 01:56:38;;;;;;;3.60;3.30;;;16.20;99.90;;;;;;5056935;28;20167;-59
2023/07/07 01:59:05;;;;;;;4.30;3.45;;;16.20;99.90;;;;;;5056805;28;20168;-59
2023/07/07 02:01:31;;;;;;;4.63;3.50;;;16.20;99.90;;;;;;5056693;28;20174;-59
2023/07/07 02:03:56;;;;;;;4.63;3.08;;;16.20;99.90;;;;;;5056584;28;20175;-59
2023/07/07 02:06:22;;;;;;;3.83;3.35;;;16.10;99.90;;;;;;5056356;28;20179;-59
2023/07/07 02:08:48;;;;;;;4.13;3.20;;;16.10;99.90;;;;;;5056699;28;20304;-59
2023/07/07 02:11:13;;;;;;;4.40;2.88;;;16.10;99.90;;;;;;5056592;28;20174;-59
2023/07/07 02:13:39;;;;;;;3.80;3.28;;;16.00;99.90;;;;;;5056406;28;20570;-58
2023/07/07 02:16:07;;;;;;;4.93;3.53;;;16.10;99.90;;;;;;5056421;28;20168;-59
2023/07/07 02:18:33;;;;;;;4.25;3.22;;;16.00;99.90;;;;;;5056060;28;20258;-58
2023/07/07 02:20:58;;;;;;;6.10;3.35;;;16.10;99.90;;;;;;5056089;28;20210;-58
2023/07/07 02:23:24;;;;;;;5.38;3.22;;;16.10;99.90;;;;;;5056210;28;20632;-58
2023/07/07 02:25:50;;;;;;;5.05;3.55;;;16.10;99.90;;;;;;5056333;28;20518;-58
2023/07/07 02:28:15;;;;;;;3.55;2.83;;;16.10;99.90;;;;;;5056282;28;20671;-58
2023/07/07 02:30:41;;;;;;;3.63;3.20;;;16.00;99.90;;;;;;5056163;28;20176;-58
2023/07/07 02:33:08;;;;;;;4.40;3.10;;;16.00;99.90;;;;;;5055957;28;20226;-58
2023/07/07 02:35:35;;;;;;;3.78;3.15;;;16.00;99.90;;;;;;5055888;28;20309;-58
2023/07/07 02:38:00;;;;;;;4.03;3.15;;;16.00;99.90;;;;;;5055882;28;20175;-59
2023/07/07 02:40:26;;;;;;;4.60;2.95;;;16.00;99.90;;;;;;5056020;28;20182;-59
2023/07/07 02:42:51;;;;;;;3.20;2.65;;;16.00;99.90;;;;;;5055949;28;20540;-58
2023/07/07 02:45:17;;;;;;;3.08;2.70;;;16.00;99.90;;;;;;5055860;28;20513;-59
2023/07/07 02:47:43;;;;;;;4.57;3.20;;;16.00;99.90;;;;;;5055712;28;20182;-58
2023/07/07 02:50:09;;;;;;;4.47;3.30;;;16.00;99.90;;;;;;5055596;28;20180;-59
2023/07/07 02:52:35;;;;;;;3.70;2.72;;;15.90;99.90;;;;;;5055850;28;20179;-58
2023/07/07 02:55:01;;;;;;;3.95;3.00;;;15.90;99.90;;;;;;5055522;28;20272;-58
2023/07/07 02:57:27;;;;;;;4.28;3.35;;;15.90;99.90;;;;;;5055984;28;20254;-58
2023/07/07 02:59:52;;;;;;;3.38;3.00;;;15.90;99.90;;;;;;5055508;28;20717;-59
2023/07/07 03:02:18;;;;;;;5.50;3.53;;;16.00;99.90;;;;;;5055575;28;20309;-59
2023/07/07 03:04:48;;;;;;;4.85;3.15;;;16.00;99.90;;;;;;5054870;28;20175;-59
2023/07/07 03:07:14;;;;;;;4.95;3.35;;;15.90;99.90;;;;;;5055672;28;20167;-58
2023/07/07 03:09:39;;;;;;;4.97;3.03;;;16.00;99.90;;;;;;5055470;28;20282;-59
2023/07/07 03:12:06;;;;;;;6.43;3.10;;;16.00;99.90;;;;;;5055401;28;20237;-58
2023/07/07 03:14:32;;;;;;;5.00;3.25;;;16.00;99.90;;;;;;5055348;28;20210;-59
2023/07/07 03:16:58;;;;;;;4.70;3.05;;;16.00;99.90;;;;;;5055055;28;20632;-58
2023/07/07 03:19:24;;;;;;;5.97;3.53;;;15.90;99.90;;;;;;5055189;28;20637;-58
2023/07/07 03:21:54;;;;;;;4.13;3.08;;;15.90;99.90;;;;;;5055234;28;20261;-59
2023/07/07 03:24:20;;;;;;;4.75;3.25;;;15.90;99.90;;;;;;5055161;28;20203;-58
2023/07/07 03:26:46;;;;;;;4.55;3.10;;;15.90;99.90;;;;;;5055134;28;20207;-58
2023/07/07 03:29:12;;;;;;;3.65;3.00;;;16.00;99.90;;;;;;5055053;28;20636;-58
2023/07/07 03:31:38;;;;;;;4.07;3.30;;;16.00;99.90;;;;;;5054954;28;20186;-58
2023/07/07 03:34:05;;;;;;;3.72;3.05;;;16.00;99.90;;;;;;5054751;28;20211;-58
2023/07/07 03:36:33;;;;;;;4.20;3.40;;;15.90;99.90;;;;;;5054996;28;20229;-59
2023/07/07 03:38:58;;;;;;;7.07;3.58;;;15.90;99.90;;;;;;5054955;28;20612;-59
2023/07/07 03:41:26;;;;;;;6.28;3.63;;;15.90;99.90;;;;;;5054858;28;20213;-58
2023/07/07 03:43:53;;;;;;;5.47;3.45;;;16.00;99.90;;;;;;5054748;28;20174;-59
2023/07/07 03:46:22;;;;;;;4.43;3.30;;;16.10;99.90;;;;;;5054539;28;20179;-59
2023/07/07 03:48:48;;;;;;;6.18;3.40;;;16.10;99.90;;;;;;5055091;28;20498;-58
2023/07/07 03:51:15;;;;;;;6.53;3.67;;;16.00;99.90;;;;;;5054693;28;20176;-59
2023/07/07 03:53:42;;;;;;;5.90;3.95;;;15.90;99.90;;;;;;5054564;28;20203;-58
2023/07/07 03:56:08;;;;;;;6.65;3.72;;;16.00;99.90;;;;;;5054433;28;20254;-59
2023/07/07 03:58:34;;;;;;;6.88;3.70;;;15.90;99.90;;;;;;5054447;28;20171;-58
2023/07/07 04:01:01;;;;;;;9.77;4.10;;;16.00;99.90;;;;;;5054319;28;20678;-58
2023/07/07 04:03:26;;;;;;;7.13;4.30;;;15.90;99.90;;;;;;5054224;28;20576;-58
2023/07/07 04:05:55;;;;;;;9.60;4.38;;;16.00;99.90;;;;;;5054127;28;20186;-58
2023/07/07 04:08:25;;;;;;;10.82;4.63;;;16.00;99.90;;;;;;5036485;28;20541;-58
2023/07/07 04:11:04;;;;;;;8.45;4.15;;;15.90;99.90;;;;;;5054198;28;20258;-58
2023/07/07 04:13:31;;;;;;;8.30;4.28;;;15.90;99.90;;;;;;5053955;28;20240;-58
2023/07/07 04:16:04;;;;;;;7.45;4.05;;;16.00;99.90;;;;;;5054007;28;20182;-58
2023/07/07 04:18:31;;;;;;;6.38;4.10;;;15.80;99.90;;;;;;5053748;28;20779;-58
2023/07/07 04:21:05;;;;;;;5.57;3.65;;;15.90;99.90;;;;;;5050038;28;20188;-58
2023/07/07 04:23:31;;;;;;;8.15;3.72;;;16.00;99.90;;;;;;5052957;28;20190;-58
2023/07/07 04:25:57;;;;;;;8.57;4.38;;;16.00;99.90;;;;;;5051868;28;20175;-58
2023/07/07 04:28:22;;;;;;;7.85;3.63;;;16.00;99.90;;;;;;5052788;28;20172;-58
2023/07/07 04:30:56;;;;;;;6.93;3.88;;;16.00;99.90;;;;;;5052376;28;20262;-58
2023/07/07 04:33:23;;;;;;;6.65;3.70;;;16.00;99.90;;;;;;5052294;28;20235;-58
2023/07/07 04:35:54;;;;;;;5.75;3.78;;;16.10;99.90;;;;;;5052298;28;20187;-58
2023/07/07 04:38:22;;;;;;;6.93;3.80;;;16.20;99.90;;;;;;5052208;28;20576;-59
2023/07/07 04:40:48;;;;;;;6.05;3.45;;;16.20;99.90;;;;;;5053334;28;20171;-58
2023/07/07 04:43:13;;;;;;;5.88;3.50;;;16.20;99.90;;;;;;5052626;28;20706;-59
2023/07/07 04:45:39;;;;;;;6.72;3.15;;;16.10;99.90;;;;;;5053294;28;20179;-59
2023/07/07 04:48:05;;;;;;;6.35;3.58;;;16.20;99.90;;;;;;5044238;28;20514;-59
2023/07/07 04:50:34;;;;;;;6.55;3.92;;;16.20;99.90;;;;;;5031996;28;20192;-58
2023/07/07 04:52:59;;;;;;;5.55;3.42;;;16.30;99.90;;;;;;5031792;28;20180;-58
2023/07/07 04:55:25;;;;;;;6.97;3.80;;;16.30;99.90;;;;;;5031947;28;20503;-58
2023/07/07 04:57:51;;;;;;;5.80;3.67;;;16.20;99.90;;;;;;5051416;28;20553;-59
2023/07/07 05:00:17;;;;;;;4.32;3.22;;;16.40;99.90;;;;;;5028096;28;20182;-60
2023/07/07 05:02:44;;;;;;;4.78;3.58;;;16.40;99.90;;;;;;5046441;28;20183;-60
2023/07/07 05:05:09;;;;;;;5.20;4.03;;;16.50;99.90;;;;;;5050361;28;20255;-60
2023/07/07 05:07:35;;;;;;;5.40;3.33;;;16.60;99.90;;;;;;5051706;28;20271;-60
2023/07/07 05:10:01;;;;;;;5.70;3.65;;;16.60;99.90;;;;;;5053072;28;20579;-60
2023/07/07 05:12:26;;;;;;;5.32;3.90;;;16.70;99.90;;;;;;5053244;28;20171;-60
2023/07/07 05:14:52;;;;;;;7.35;3.47;;;16.80;99.90;;;;;;5052676;28;20215;-60
2023/07/07 05:17:18;;;;;;;5.15;3.60;;;16.80;99.90;;;;;;5053034;28;20219;-59
2023/07/07 05:19:44;;;;;;;5.18;3.53;;;16.90;99.90;;;;;;5053143;28;20260;-60
2023/07/07 05:22:09;;;;;;;6.50;3.97;;;17.00;99.90;;;;;;5052951;28;20523;-60
2023/07/07 05:24:35;;;;;;;5.22;3.58;;;17.00;99.90;;;;;;5052629;28;20258;-60
2023/07/07 05:27:01;;;;;;;7.20;3.20;;;17.00;99.90;;;;;;5053266;28;20201;-60
2023/07/07 05:29:26;;;;;;;7.70;3.50;;;17.00;99.90;;;;;;5056658;28;20203;-60
2023/07/07 05:31:52;;;;;;;9.32;3.55;;;17.10;99.90;;;;;;5057613;28;20210;-60
2023/07/07 05:34:19;;;;;;;6.97;3.38;;;17.10;99.90;;;;;;5057033;28;20207;-60
2023/07/07 05:36:45;;;;;;;6.35;3.42;;;17.30;99.90;;;;;;5057008;28;20179;-59
2023/07/07 05:39:11;;;;;;;7.38;3.95;;;17.30;99.90;;;;;;5057300;28;20532;-59
2023/07/07 05:41:36;;;;;;;9.15;3.70;;;17.40;99.90;;;;;;5057217;28;20199;-58
2023/07/07 05:44:02;;;;;;;6.45;3.75;;;17.40;99.90;;;;;;5057139;28;20181;-59
2023/07/07 05:46:27;;;;;;;6.10;3.72;;;17.50;99.90;;;;;;5056914;28;20175;-58
2023/07/07 05:48:53;;;;;;;5.45;3.55;;;17.60;99.90;;;;;;5056872;28;20175;-59
2023/07/07 05:51:19;;;;;;;6.63;3.35;;;17.70;99.90;;;;;;5056662;28;20187;-59
2023/07/07 05:53:45;;;;;;;8.20;3.50;;;17.80;99.90;;;;;;5056641;28;20203;-60
2023/07/07 05:56:30;;;;;;;5.60;3.25;;;17.80;99.90;;;;;;5056943;28;20171;-59
2023/07/07 05:58:57;;;;;;;6.55;3.50;;;18.00;99.90;;;;;;5057004;28;20179;-60
2023/07/07 06:01:23;;;;;;;5.05;2.92;;;18.20;99.90;;;;;;5056708;28;20175;-59
2023/07/07 06:03:48;;;;;;;5.43;3.05;;;18.20;99.90;;;;;;5056612;28;20584;-60
2023/07/07 06:06:14;;;;;;;5.70;3.90;;;18.30;99.90;;;;;;5056922;28;20183;-59
2023/07/07 06:08:40;;;;;;;5.82;3.17;;;18.40;99.90;;;;;;5056630;28;20262;-59
2023/07/07 06:11:06;;;;;;;4.60;3.10;;;18.50;99.90;;;;;;5056698;28;20524;-59
2023/07/07 06:13:32;;;;;;;5.97;3.42;;;18.60;99.90;;;;;;5056352;28;20203;-59
2023/07/07 06:15:59;;;;;;;6.43;3.03;;;18.80;99.90;;;;;;5056548;28;20217;-59
2023/07/07 06:18:25;;;;;;;6.28;3.28;;;18.80;99.90;;;;;;5056012;28;20258;-59
2023/07/07 06:20:59;;;;;;;3.83;2.95;;;19.00;99.90;;;;;;5056401;28;20229;-59
2023/07/07 06:23:26;;;;;;;6.80;3.58;;;19.00;99.90;;;;;;5056299;28;20189;-59
2023/07/07 06:25:52;;;;;;;4.88;3.08;;;19.20;99.90;;;;;;5056304;28;20163;-60
2023/07/07 06:28:19;;;;;;;5.03;3.03;;;19.10;99.90;;;;;;5056257;28;20502;-59
2023/07/07 06:30:48;;;;;;;5.30;3.10;;;19.20;99.90;;;;;;5056106;28;20167;-59
2023/07/07 06:33:14;;;;;;;4.93;3.05;;;19.40;99.90;;;;;;5055939;28;20293;-59
2023/07/07 06:35:42;;;;;;;5.03;2.72;;;19.40;99.90;;;;;;5056399;28;20179;-59
2023/07/07 06:38:07;;;;;;;5.47;2.80;;;19.40;99.90;;;;;;5056161;28;20226;-59
2023/07/07 06:40:34;;;;;;;3.97;2.50;;;19.50;99.90;;;;;;5055159;28;20179;-59
2023/07/07 06:43:00;;;;;;;6.13;3.30;;;19.70;99.90;;;;;;5055776;28;20694;-59
2023/07/07 06:45:26;;;;;;;5.82;3.35;;;19.90;99.90;;;;;;5055853;28;20178;-59
2023/07/07 06:47:52;;;;;;;5.30;2.70;;;20.10;99.90;;;;;;5055651;28;20188;-59
2023/07/07 06:50:26;;;;;;;7.35;3.30;;;20.20;99.90;;;;;;5055889;28;20175;-59
2023/07/07 06:52:52;;;;;;;5.47;2.83;;;20.40;99.90;;;;;;5055717;28;20262;-59
2023/07/07 06:55:17;;;;;;;3.72;2.50;;;20.50;99.90;;;;;;5055766;28;20712;-59
2023/07/07 06:57:43;;;;;;;5.50;2.45;;;20.60;99.90;;;;;;5055639;28;20164;-60
2023/07/07 07:00:09;;;;;;;4.07;2.85;;;20.80;99.90;;;;;;5055507;28;20259;-59
2023/07/07 07:02:35;;;;;;;4.25;2.70;;;21.00;99.90;;;;;;5055731;28;20175;-59
2023/07/07 07:05:01;;;;;;;5.10;2.60;;;21.00;99.90;;;;;;5055599;28;20179;-59
2023/07/07 07:07:27;;;;;;;5.00;2.35;;;21.10;99.90;;;;;;5055484;28;20171;-59
2023/07/07 07:09:53;;;;;;;5.13;2.75;;;21.20;99.90;;;;;;5055486;28;20536;-59
2023/07/07 07:12:19;;;;;;;3.65;2.35;;;21.40;99.90;;;;;;5055429;28;20180;-59
2023/07/07 07:14:44;;;;;;;5.05;2.53;;;21.60;99.90;;;;;;5055163;28;20199;-59
2023/07/07 07:17:10;;;;;;;5.35;2.53;;;21.70;99.90;;;;;;5055230;28;20190;-59
2023/07/07 07:19:35;;;;;;;4.00;2.10;;;21.70;99.90;;;;;;5055542;28;20694;-60
2023/07/07 07:22:01;;;;;;;4.05;2.15;;;21.90;99.90;;;;;;5055222;28;20183;-59
2023/07/07 07:24:27;;;;;;;4.35;2.17;;;22.10;99.90;;;;;;5055242;28;20236;-60
2023/07/07 07:26:52;;;;;;;3.65;2.38;;;22.00;99.90;;;;;;5055197;28;20178;-60
2023/07/07 07:29:18;;;;;;;4.00;2.20;;;22.20;99.90;;;;;;5055255;28;20175;-60
2023/07/07 07:31:44;;;;;;;7.18;2.35;;;22.40;99.90;;;;;;5054752;28;20218;-60
2023/07/07 07:34:27;;;;;;;5.40;2.42;;;22.70;99.90;;;;;;5055022;28;20328;-59
2023/07/07 07:36:53;;;;;;;5.57;2.28;;;22.80;99.90;;;;;;5054994;28;20171;-59
2023/07/07 07:39:20;;;;;;;3.75;2.35;;;22.80;99.90;;;;;;5054928;28;20184;-60
2023/07/07 07:41:48;;;;;;;2.25;1.90;;;22.70;99.90;;;;;;5054845;28;20171;-61
2023/07/07 07:44:15;;;;;;;4.70;2.40;;;22.90;99.90;;;;;;5054711;28;20180;-59
2023/07/07 07:46:41;;;;;;;3.00;2.17;;;23.10;99.90;;;;;;5054780;28;20171;-60
2023/07/07 07:49:08;;;;;;;5.70;2.17;;;23.30;99.90;;;;;;5037014;28;20258;-59
2023/07/07 07:51:37;;;;;;;3.55;1.98;;;23.60;99.90;;;;;;5054663;28;20180;-60
2023/07/07 07:54:07;;;;;;;5.30;2.30;;;23.50;99.90;;;;;;5054416;28;20210;-60
2023/07/07 07:56:33;;;;;;;3.60;2.20;;;23.40;99.90;;;;;;5054470;28;20171;-60
2023/07/07 07:58:59;;;;;;;6.68;2.10;;;23.50;99.90;;;;;;5054656;28;20171;-60
2023/07/07 08:01:25;;;;;;;5.57;2.22;;;23.70;99.90;;;;;;5054569;28;20182;-60
2023/07/07 08:03:51;;;;;;;3.95;2.05;;;23.90;99.90;;;;;;5054502;28;20175;-60
2023/07/07 08:06:17;;;;;;;3.33;2.20;;;24.10;99.90;;;;;;5054339;28;20171;-59
2023/07/07 08:08:42;;;;;;;4.43;2.20;;;24.00;99.90;;;;;;5054376;28;20236;-60
2023/07/07 08:11:18;;;;;;;2.65;1.90;;;24.20;99.90;;;;;;5054136;28;20254;-60
2023/07/07 08:13:43;;;;;;;2.25;1.80;;;24.50;99.90;;;;;;5054228;28;20202;-59
2023/07/07 08:16:10;;;;;;;4.50;2.17;;;24.60;99.90;;;;;;5054240;28;20232;-60
2023/07/07 08:18:37;;;;;;;3.83;2.20;;;24.50;99.90;;;;;;5054076;28;20292;-59
2023/07/07 08:21:03;;;;;;;7.65;2.28;;;24.50;99.90;;;;;;5054028;28;20171;-60
2023/07/07 08:23:29;;;;;;;6.75;2.55;;;24.70;99.90;;;;;;5053930;28;20233;-60
2023/07/07 08:25:55;;;;;;;6.15;1.98;;;24.80;99.90;;;;;;5053952;28;20176;-60
2023/07/07 08:28:21;;;;;;;3.15;1.67;;;25.00;99.80;;;;;;5054339;28;20171;-60
2023/07/07 08:30:46;;;;;;;4.88;2.00;;;25.10;99.80;;;;;;5053999;28;20187;-60
2023/07/07 08:33:12;;;;;;;6.57;2.20;;;25.30;99.80;;;;;;5053937;28;20294;-60
2023/07/07 08:35:38;;;;;;;3.53;1.90;;;25.40;99.50;;;;;;5053864;28;20193;-60
2023/07/07 08:38:04;;;;;;;5.68;2.22;;;25.40;98.80;;;;;;5053637;28;20172;-60
2023/07/07 08:40:44;;;;;;;4.15;2.05;;;25.40;99.00;;;;;;5053607;28;20186;-60
2023/07/07 08:43:11;;;;;;;5.82;2.05;;;25.70;99.00;;;;;;5053728;28;20171;-60
2023/07/07 08:45:43;;;;;;;7.38;2.00;;;25.70;99.10;;;;;;5053582;28;20171;-60
2023/07/07 08:48:33;;;;;;;7.22;2.33;;;25.50;99.20;;;;;;5053557;28;20217;-60
2023/07/07 08:51:04;;;;;;;6.20;2.08;;;25.60;97.80;;;;;;5053358;28;20186;-60
2023/07/07 08:54:01;;;;;;;4.53;1.85;;;25.70;98.10;;;;;;5053932;28;20195;-60
2023/07/07 08:56:34;;;;;;;5.45;1.90;;;25.90;97.40;;;;;;5052464;28;20195;-60
2023/07/07 08:59:44;;;;;;;4.28;2.00;;;26.20;98.50;;;;;;5053272;28;20194;-60
2023/07/07 09:02:32;;;;;;;6.95;2.17;;;26.20;98.10;;;;;;5053412;28;20167;-60
2023/07/07 09:05:42;;;;;;;5.82;2.17;;;26.20;97.70;;;;;;5053316;28;20167;-60
2023/07/07 09:08:26;;;;;;;4.90;2.50;;;26.30;96.60;;;;;;5042229;28;20202;-60
2023/07/07 09:11:21;;;;;;;4.28;1.80;;;26.30;96.60;;;;;;5053341;28;20171;-60
2023/07/07 09:13:50;;;;;;;3.75;2.00;;;26.40;96.10;;;;;;5031724;28;20219;-60
2023/07/07 09:16:25;;;;;;;4.18;1.90;;;26.20;95.40;;;;;;5053312;28;20250;-60
2023/07/07 09:19:05;;;;;;;3.47;1.63;;;26.30;96.10;;;;;;5053031;28;20262;-60
2023/07/07 09:21:41;;;;;;;3.65;2.13;;;26.30;95.90;;;;;;5053172;28;20182;-60
2023/07/07 09:24:23;;;;;;;4.53;1.77;;;26.50;95.40;;;;;;5053055;28;20198;-60
2023/07/07 09:26:52;;;;;;;3.67;1.92;;;26.90;95.40;;;;;;5053328;28;20175;-60
2023/07/07 09:29:30;;;;;;;5.32;2.17;;;26.90;94.90;;;;;;5052977;28;20174;-60
2023/07/07 09:32:01;;;;;;;5.70;2.28;;;27.10;95.10;;;;;;5052873;28;20529;-60
2023/07/07 09:34:26;;;;;;;5.15;2.03;;;26.70;93.20;;;;;;5052929;28;20687;-61
2023/07/07 09:37:04;;;;;;;4.63;1.92;;;26.80;92.40;;;;;;5052796;28;20183;-60
2023/07/07 09:40:10;;;;;;;5.10;1.90;;;26.90;92.40;;;;;;5053037;28;20571;-60
2023/07/07 09:43:06;;;;;;;4.78;1.67;;;27.10;92.90;;;;;;5052914;28;20171;-60
2023/07/07 09:45:50;;;;;;;2.67;1.90;;;27.20;91.60;;;;;;5053046;28;20167;-60
2023/07/07 09:48:45;;;;;;;3.28;1.50;;;27.00;88.90;;;;;;5052823;28;20182;-60
2023/07/07 09:51:19;;;;;;;3.30;2.00;;;27.10;90.90;;;;;;5052765;28;20258;-60
2023/07/07 09:53:46;;;;;;;2.60;1.73;;;27.20;89.40;;;;;;5052743;28;20251;-60
2023/07/07 09:56:24;;;;;;;3.88;1.75;;;27.30;90.50;;;;;;5052906;28;20637;-60
2023/07/07 09:59:06;;;;;;;3.13;1.90;;;27.40;91.60;;;;;;5052872;28;20260;-60
2023/07/07 10:01:36;;;;;;;2.38;1.67;;;27.60;91.50;;;;;;5052664;28;20228;-60
2023/07/07 10:04:08;;;;;;;3.55;2.10;;;27.50;89.00;;;;;;5052958;28;20172;-60
2023/07/07 10:06:50;;;;;;;2.50;2.10;;;27.30;90.50;;;;;;5052951;28;20172;-60
2023/07/07 10:09:16;;;;;;;3.40;1.85;;;27.40;90.80;;;;;;5052740;28;20171;-61
2023/07/07 10:11:43;;;;;;;3.63;1.65;;;27.50;91.10;;;;;;5052584;28;20186;-60
2023/07/07 10:14:12;;;;;;;3.38;1.70;;;27.50;90.70;;;;;;5052460;28;20199;-60
2023/07/07 10:17:10;;;;;;;4.60;1.90;;;27.70;91.80;;;;;;5056113;28;20167;-60
2023/07/07 10:20:05;;;;;;;4.70;2.05;;;27.70;90.90;;;;;;5056501;28;20181;-60
2023/07/07 10:22:35;;;;;;;2.28;2.03;;;28.10;91.20;;;;;;5039163;28;20187;-60
2023/07/07 10:25:03;;;;;;;2.13;1.80;;;28.10;90.30;;;;;;5056361;28;20194;-60
2023/07/07 10:27:29;;;;;;;3.38;1.80;;;28.10;89.80;;;;;;5056106;28;20168;-60
2023/07/07 10:30:04;;;;;;;2.72;2.00;;;28.20;90.60;;;;;;5056271;28;20171;-60
2023/07/07 10:32:30;;;;;;;2.47;1.90;;;28.50;90.50;;;;;;5056086;28;20261;-60
2023/07/07 10:35:02;;;;;;;3.63;2.00;;;28.70;90.80;;;;;;5055921;28;20319;-60
2023/07/07 10:37:32;;;;;;;3.53;2.17;;;28.70;89.30;;;;;;5056113;28;20206;-60
2023/07/07 10:40:00;;;;;;;3.53;1.88;;;28.60;89.70;;;;;;5056009;28;20171;-61
2023/07/07 10:42:28;;;;;;;3.25;2.00;;;28.30;88.80;;;;;;5055978;28;20163;-61
2023/07/07 10:44:55;;;;;;;8.38;2.13;;;28.60;90.70;;;;;;5055908;28;20172;-61
2023/07/07 10:47:33;;;;;;;9.00;2.00;;;28.70;87.50;;;;;;5055847;28;20175;-61
2023/07/07 10:50:10;;;;;;;2.88;1.90;;;28.80;86.90;;;;;;5055772;28;20229;-61
2023/07/07 10:53:02;;;;;;;3.38;1.83;;;28.70;87.30;;;;;;5055879;28;20176;-61
2023/07/07 10:55:35;;;;;;;3.30;2.05;;;28.60;88.90;;;;;;5055633;28;20195;-61
2023/07/07 10:58:28;;;;;;;3.30;1.80;;;28.60;86.60;;;;;;5055650;28;20164;-61
2023/07/07 11:01:06;;;;;;;4.18;2.00;;;28.40;86.10;;;;;;5055634;28;20258;-61
2023/07/07 11:03:59;;;;;;;2.25;1.92;;;28.10;87.40;;;;;;5055649;28;20198;-61
2023/07/07 11:06:31;;;;;;;2.53;2.00;;;28.30;87.30;;;;;;5055431;28;20520;-61
2023/07/07 11:09:18;;;;;;;3.42;2.05;;;28.50;88.50;;;;;;5055601;28;20167;-61
2023/07/07 11:12:21;;;;;;;3.70;1.90;;;28.60;87.50;;;;;;5055553;28;20175;-61
2023/07/07 11:14:59;;;;;;;3.75;2.20;;;28.80;85.50;;;;;;5051088;28;20222;-61
2023/07/07 11:18:02;;;;;;;3.33;2.10;;;28.80;88.20;;;;;;5055247;28;20223;-61
2023/07/07 11:20:39;;;;;;;2.97;2.03;;;28.90;89.10;;;;;;5034083;28;20195;-61
2023/07/07 11:23:11;;;;;;;3.45;2.10;;;29.00;86.80;;;;;;5055177;28;20164;-61
2023/07/07 11:26:09;;;;;;;4.18;1.90;;;29.10;86.80;;;;;;5055035;28;20524;-61
2023/07/07 11:28:52;;;;;;;4.95;1.98;;;28.70;86.00;;;;;;5000172;28;20180;-61
2023/07/07 11:31:18;;;;;;;4.22;2.00;;;28.70;85.40;;;;;;5054979;28;20663;-61
2023/07/07 11:34:28;;;;;;;2.63;1.90;;;28.80;86.30;;;;;;5055126;28;20199;-61
2023/07/07 11:37:14;;;;;;;4.72;2.20;;;28.80;84.70;;;;;;5054948;28;20217;-61
2023/07/07 11:39:57;;;;;;;5.00;2.20;;;28.80;86.40;;;;;;5054773;28;20160;-61
2023/07/07 11:42:33;;;;;;;3.13;2.00;;;28.80;84.10;;;;;;5054827;28;20675;-61
2023/07/07 11:45:10;;;;;;;5.07;2.28;;;28.80;85.10;;;;;;5054955;28;20206;-61
2023/07/07 11:48:08;;;;;;;3.20;2.13;;;29.00;85.70;;;;;;5054808;28;20636;-61
2023/07/07 11:50:46;;;;;;;4.03;2.20;;;29.10;84.80;;;;;;5054809;28;20258;-61
2023/07/07 11:53:27;;;;;;;2.83;2.15;;;29.10;83.80;;;;;;5054871;28;20285;-61
2023/07/07 11:56:04;;;;;;;3.72;2.10;;;29.00;82.20;;;;;;5054596;28;20175;-61
2023/07/07 11:58:39;;;;;;;3.83;2.20;;;28.80;82.40;;;;;;5054406;28;20175;-61
2023/07/07 12:01:25;;;;;;;3.95;2.67;;;29.10;84.70;;;;;;5054643;28;20171;-61
2023/07/07 12:04:05;;;;;;;4.50;2.20;;;29.20;82.70;;;;;;5054731;28;20253;-61
2023/07/07 12:06:47;;;;;;;3.05;2.50;;;29.40;83.50;;;;;;5054309;28;20275;-61
2023/07/07 12:09:15;;;;;;;6.38;2.90;;;29.50;82.10;;;;;;5054838;28;20178;-61
2023/07/07 12:12:06;;;;;;;3.85;2.53;;;29.60;81.60;;;;;;5054344;28;20244;-61
2023/07/07 12:15:10;;;;;;;6.35;2.30;;;29.50;82.20;;;;;;5053962;28;20210;-61
2023/07/07 12:17:40;;;;;;;5.60;2.50;;;29.40;82.80;;;;;;4965164;28;20768;-61
2023/07/07 12:20:21;;;;;;;3.13;2.35;;;29.50;83.20;;;;;;4992651;28;20180;-61
2023/07/07 12:22:47;;;;;;;3.20;1.98;;;29.60;84.10;;;;;;5040913;28;20178;-61
2023/07/07 12:25:26;;;;;;;6.13;2.55;;;29.80;83.50;;;;;;5073863;28;20182;-61
2023/07/07 12:27:53;;;;;;;3.05;2.30;;;29.70;81.40;;;;;;5074030;28;20207;-61
2023/07/07 12:30:32;;;;;;;5.05;2.42;;;29.60;83.30;;;;;;5073988;28;20209;-61
2023/07/07 12:32:58;;;;;;;5.28;2.20;;;29.60;82.70;;;;;;5073856;28;20706;-61
2023/07/07 12:35:44;;;;;;;3.30;2.35;;;29.80;83.70;;;;;;5073650;28;20210;-61
2023/07/07 12:38:13;;;;;;;4.13;2.40;;;29.70;82.20;;;;;;5072958;28;20591;-61
2023/07/07 12:40:45;;;;;;;4.32;2.65;;;29.90;82.90;;;;;;5073537;28;20171;-61
2023/07/07 12:43:43;;;;;;;2.90;2.30;;;29.80;81.20;;;;;;5073797;28;20178;-61
2023/07/07 12:46:33;;;;;;;3.15;2.42;;;29.90;83.20;;;;;;5057914;28;20282;-60
2023/07/07 12:49:19;;;;;;;3.08;2.38;;;29.90;81.90;;;;;;5063920;28;20187;-59
2023/07/07 12:51:45;;;;;;;4.07;2.90;;;29.60;81.30;;;;;;5073711;28;20228;-61
2023/07/07 12:54:30;;;;;;;4.35;2.70;;;29.60;82.30;;;;;;5073406;28;20248;-59
2023/07/07 12:57:19;;;;;;;3.03;2.42;;;29.50;80.70;;;;;;5073314;28;20182;-59
2023/07/07 12:59:45;;;;;;;4.55;2.33;;;29.60;81.90;;;;;;5073166;28;20249;-61
2023/07/07 13:02:23;;;;;;;2.70;2.28;;;29.40;81.50;;;;;;5072640;28;20175;-60
2023/07/07 13:05:00;;;;;;;4.18;2.58;;;29.30;82.30;;;;;;5072463;28;20209;-59
2023/07/07 13:07:32;;;;;;;4.60;2.53;;;29.50;83.00;;;;;;5072416;28;20253;-60
2023/07/07 13:09:57;;;;;;;5.13;2.70;;;29.60;81.10;;;;;;5072662;28;20170;-60